Fontana, CA (92335)

7:35 AM PDT on October 22, 2014 (GMT -0700)
The Villiages | Change Station
CLOSE
Current Station
Personal Weather Station
Location: Fontana, CA
Elevation: 398 m
Nearby Weather Stations

Elev 398 m 34.12 °N, 117.48 °W | Updated 46 seconds ago

Clear
Clear
12.9 °C
Feels Like 12.9 °C
N
0.0
Wind Variable Wind from SW
Gusts 0.0 km/h

Today
High -- | Low -- °C
--% Chance of Precip.
Yesterday
High -- | Low -- °C
Precip. -- mm
7:00 AM 6:07 PM
Waning Crescent, 2% visible
Pressure 1012 hPa
Visibility 11.3 kilometers
Clouds Clear
Dew Point 11 °C
Humidity 86%
Rainfall 0 mm
Snow Depth Not available.
UV 0 out of 12
Pollen 4.50 out of 12
Ozone Good
PM2.5 Moderate
Flu Activity Sporadic
METAR KONT 221353Z 00000KT 7SM CLR 15/10 A2992 RMK AO2 SLP124 T01500100

More Conditions Fewer Conditions

Pressure 1012 hPa
Visibility 11.3 kilometers
Clouds Clear
Dew Point 11 °C
Humidity 86%
Rainfall 0 mm
Snow Depth Not available.
UV 0 out of 12
Pollen 4.50 out of 12
Ozone Good
PM2.5 Moderate
Flu Activity Sporadic
METAR KONT 221353Z 00000KT 7SM CLR 15/10 A2992 RMK AO2 SLP124 T01500100

More Conditions Fewer Conditions

10-Day Weather Forecast

Almanac

Astronomy

Oct. 22, 2014 Rise Set
Actual Time 7:00 AM PDT 6:07 PM PDT
Civil Twilight 6:35 AM PDT 6:32 PM PDT
Nautical Twilight 6:06 AM PDT 7:01 PM PDT
Astronomical Twilight 5:37 AM PDT 7:30 PM PDT
Moon 5:49 AM PDT 5:34 PM PDT
Length of Visible Light 11h 57m
Length of Day
11h 06m
Tomorrow will be 1m 57s shorter.
Waning Crescent, 2% of the Moon is Illuminated
Today
Waning Crescent
Oct 23
New
Oct 30
First Quarter
Nov 6
Full
Nov 14
Last Quarter

Today's Extremes

State Highs State Lows

Community

WunderPhotos

Upload Photos

1,763,935 photos uploaded!

WunderBlogs® & News

Nearby

Air Quality

  Air Quality AQ Index Pollutant
Yesterday Good
PM10
Yesterday Good
OZONE
Current Moderate
PM2.5
Current Good
OZONE
Wednesday Moderate
PM10
Wednesday Moderate
OZONE
Wednesday Good
CO
Wednesday Good
NO2

Snow Depth

Station Depth Elevation
Virginia Lakes Ridge 0 in 9200 ft
Leavitt Lake 1 in 9400 ft
Leavitt Meadows 1 in 7200 ft
Sonora Pass 0 in 8800 ft
Summit Meadow 1 in 9122 ft

Earthquake Activity

City Distance Mag. Time & Date
No recent earthquake activity has been reported nearby.
Minimum magnitude displayed is 2.5.

Coastal Water Temperatures

Place Temperature
No Stations Reporting

Nearby Weather Stations